createdAt,value
2022-10-02T00:00:52.947Z,94.10
2022-10-02T00:02:07.087Z,93.16
2022-10-02T00:03:16.283Z,93.74
2022-10-02T00:04:37.923Z,93.61
2022-10-02T00:05:46.148Z,92.84
2022-10-02T00:06:51.826Z,93.48
2022-10-02T00:08:02.007Z,92.78
2022-10-02T00:09:08.208Z,91.31
2022-10-02T00:10:23.244Z,91.08
2022-10-02T00:11:39.441Z,91.51
2022-10-02T00:12:44.728Z,92.13
2022-10-02T00:13:51.823Z,91.88
2022-10-02T00:15:01.672Z,91.29
2022-10-02T00:16:10.521Z,91.90
2022-10-02T00:17:25.892Z,90.98
2022-10-02T00:18:35.112Z,89.84
2022-10-02T00:19:37.907Z,90.05
2022-10-02T00:21:06.889Z,89.96
2022-10-02T00:22:34.689Z,90.24
2022-10-02T00:23:42.140Z,89.51
2022-10-02T00:25:02.152Z,89.44
2022-10-02T00:26:22.709Z,89.81
2022-10-02T00:27:49.968Z,89.78
2022-10-02T00:29:29.928Z,89.27
2022-10-02T00:31:01.257Z,89.79
2022-10-02T00:32:17.255Z,91.16
2022-10-02T00:33:56.755Z,89.75
2022-10-02T00:35:15.019Z,89.54
2022-10-02T00:36:54.688Z,89.48
2022-10-02T00:38:07.874Z,89.52
2022-10-02T00:39:25.967Z,89.30
2022-10-02T00:41:03.796Z,89.30
2022-10-02T00:42:46.009Z,90.06
2022-10-02T00:44:03.891Z,89.15
2022-10-02T00:45:27.237Z,89.38
2022-10-02T00:46:43.954Z,89.69
2022-10-02T00:48:17.257Z,90.16
2022-10-02T00:49:35.129Z,90.57
2022-10-02T00:51:04.459Z,90.84
2022-10-02T00:52:36.163Z,91.12
2022-10-02T00:53:50.774Z,90.88
2022-10-02T00:54:59.385Z,90.71
2022-10-02T00:56:20.365Z,90.42
2022-10-02T00:57:22.997Z,91.18
2022-10-02T00:58:55.295Z,91.86
2022-10-02T01:00:11.458Z,92.32
2022-10-02T01:01:24.163Z,91.75
2022-10-02T01:02:27.079Z,92.22
2022-10-02T01:03:40.276Z,92.62
2022-10-02T01:04:48.326Z,92.85
2022-10-02T01:05:51.193Z,93.02
2022-10-02T01:06:54.000Z,93.72
2022-10-02T01:07:57.721Z,94.01
2022-10-02T01:09:01.620Z,94.45
2022-10-02T01:10:04.598Z,94.48
2022-10-02T01:11:08.014Z,94.54
2022-10-02T01:12:11.824Z,94.33
2022-10-02T01:13:14.659Z,93.00
2022-10-02T01:14:17.970Z,93.67
2022-10-02T01:15:23.577Z,94.84
2022-10-02T01:16:26.438Z,94.44
2022-10-02T01:17:34.934Z,94.26
2022-10-02T01:18:38.183Z,93.79
2022-10-02T01:19:42.596Z,94.13
2022-10-02T01:20:54.959Z,94.34
2022-10-02T01:22:23.305Z,95.01
2022-10-02T01:23:40.830Z,95.16
2022-10-02T01:24:50.420Z,94.66
2022-10-02T01:25:53.406Z,95.05
2022-10-02T01:26:56.341Z,94.81
2022-10-02T01:27:59.255Z,94.14
2022-10-02T01:29:02.373Z,94.10
2022-10-02T01:30:11.797Z,94.17
2022-10-02T01:31:15.550Z,93.99
2022-10-02T01:32:18.803Z,93.98
2022-10-02T01:33:23.376Z,94.30
2022-10-02T01:34:27.194Z,93.82
2022-10-02T01:35:34.267Z,92.48
2022-10-02T01:36:37.692Z,93.06
2022-10-02T01:37:44.487Z,93.45
2022-10-02T01:38:49.373Z,93.80
2022-10-02T01:39:53.060Z,93.75
2022-10-02T01:40:55.809Z,93.62
2022-10-02T01:41:58.853Z,93.32
2022-10-02T01:43:07.817Z,94.14
2022-10-02T01:44:11.557Z,94.08
2022-10-02T01:45:14.491Z,93.49
2022-10-02T01:46:56.441Z,93.27
2022-10-02T01:48:13.913Z,93.18
2022-10-02T01:49:53.899Z,94.43
2022-10-02T01:51:30.859Z,95.68
2022-10-02T01:53:08.799Z,94.39
2022-10-02T01:54:36.879Z,93.87
2022-10-02T01:56:09.931Z,94.87
2022-10-02T01:57:51.738Z,95.26
2022-10-02T01:59:05.532Z,94.89
2022-10-02T02:00:26.488Z,94.22
2022-10-02T02:01:59.547Z,94.36
2022-10-02T02:03:29.964Z,95.04
2022-10-02T02:05:16.892Z,94.87
2022-10-02T02:06:30.012Z,94.27
2022-10-02T02:07:42.738Z,94.18
2022-10-02T02:08:58.428Z,94.43
2022-10-02T02:10:26.116Z,94.50
2022-10-02T02:11:30.337Z,94.35
2022-10-02T02:12:57.924Z,94.08
2022-10-02T02:14:17.759Z,93.97
2022-10-02T02:15:26.639Z,94.60
2022-10-02T02:16:41.090Z,94.63
2022-10-02T02:17:55.014Z,94.59
2022-10-02T02:19:07.959Z,94.92
2022-10-02T02:20:25.315Z,95.94
2022-10-02T02:21:35.864Z,96.04
2022-10-02T02:22:44.677Z,95.73
2022-10-02T02:23:47.889Z,95.65
2022-10-02T02:25:00.382Z,94.92
2022-10-02T02:26:12.697Z,94.96
2022-10-02T02:27:20.151Z,94.79
2022-10-02T02:28:24.901Z,95.90
2022-10-02T02:29:31.874Z,95.96
2022-10-02T02:30:38.996Z,96.25
2022-10-02T02:31:52.476Z,97.56
2022-10-02T02:33:01.719Z,97.07
2022-10-02T02:34:11.808Z,97.03
2022-10-02T02:35:26.751Z,96.22
2022-10-02T02:36:41.120Z,96.70
2022-10-02T02:37:46.813Z,96.94
2022-10-02T02:38:56.090Z,94.85
2022-10-02T02:40:05.350Z,95.00
2022-10-02T02:41:19.732Z,95.29
2022-10-02T02:42:26.398Z,94.73
2022-10-02T02:43:55.412Z,94.95
2022-10-02T02:45:08.763Z,95.03
2022-10-02T02:46:24.115Z,96.52
2022-10-02T02:47:55.131Z,96.91
2022-10-02T02:49:07.940Z,96.28
2022-10-02T02:50:35.305Z,96.58
2022-10-02T02:51:43.391Z,96.41
2022-10-02T02:52:53.622Z,96.52
2022-10-02T02:54:14.391Z,95.92
2022-10-02T02:55:29.963Z,96.10
2022-10-02T02:56:34.066Z,96.23
2022-10-02T02:58:03.921Z,96.40
2022-10-02T02:59:12.715Z,95.03
2022-10-02T03:00:16.583Z,95.34
2022-10-02T03:01:19.524Z,95.19
2022-10-02T03:02:22.610Z,94.90
2022-10-02T03:03:25.691Z,94.78
2022-10-02T03:04:28.695Z,95.46
2022-10-02T03:05:32.755Z,95.29
2022-10-02T03:06:40.515Z,94.98
2022-10-02T03:08:16.111Z,95.07
2022-10-02T03:09:21.597Z,95.06
2022-10-02T03:10:48.520Z,95.92
2022-10-02T03:12:16.369Z,95.68
2022-10-02T03:13:40.551Z,94.59
2022-10-02T03:14:52.275Z,95.55
2022-10-02T03:16:05.103Z,95.69
2022-10-02T03:17:44.100Z,95.67
2022-10-02T03:19:34.286Z,96.00
2022-10-02T03:20:45.780Z,96.56
2022-10-02T03:21:55.409Z,96.54
2022-10-02T03:23:30.253Z,96.68
2022-10-02T03:24:44.467Z,96.73
2022-10-02T03:25:54.481Z,96.59
2022-10-02T03:27:12.980Z,96.05
2022-10-02T03:28:56.466Z,96.66
2022-10-02T03:30:03.033Z,96.80
2022-10-02T03:31:06.407Z,97.29
2022-10-02T03:32:12.268Z,97.18
2022-10-02T03:33:17.217Z,97.31
2022-10-02T03:34:20.529Z,97.01
2022-10-02T03:35:25.217Z,96.69
2022-10-02T03:36:28.264Z,97.21
2022-10-02T03:37:32.331Z,96.75
2022-10-02T03:38:36.065Z,96.55
2022-10-02T03:39:45.776Z,96.59
2022-10-02T03:40:48.581Z,96.64
2022-10-02T03:41:54.862Z,96.37
2022-10-02T03:42:58.738Z,96.06
2022-10-02T03:44:01.935Z,95.89
2022-10-02T03:45:05.191Z,96.51
2022-10-02T03:46:08.015Z,96.99
2022-10-02T03:47:17.217Z,96.67
2022-10-02T03:48:20.045Z,97.08
2022-10-02T03:49:22.893Z,97.50
2022-10-02T03:50:25.790Z,97.94
2022-10-02T03:51:28.499Z,97.98
2022-10-02T03:52:34.876Z,97.25
2022-10-02T03:53:37.657Z,96.61
2022-10-02T03:54:40.465Z,96.67
2022-10-02T03:55:51.854Z,96.95
2022-10-02T03:57:04.131Z,96.98
2022-10-02T03:58:17.325Z,96.50
2022-10-02T04:00:01.074Z,96.31
2022-10-02T04:01:11.102Z,96.40
2022-10-02T04:02:23.700Z,96.79
2022-10-02T04:03:31.595Z,96.93
2022-10-02T04:04:50.198Z,97.16
2022-10-02T04:06:05.271Z,97.69
2022-10-02T04:07:16.431Z,97.92
2022-10-02T04:08:34.216Z,96.41
2022-10-02T04:09:52.198Z,96.95
2022-10-02T04:11:37.378Z,97.20
2022-10-02T04:12:46.992Z,97.98
2022-10-02T04:14:00.168Z,98.10
2022-10-02T04:15:26.254Z,98.25
2022-10-02T04:16:40.154Z,97.95
2022-10-02T04:18:08.537Z,97.92
2022-10-02T04:19:36.347Z,97.51
2022-10-02T04:20:53.555Z,97.27
2022-10-02T04:22:02.367Z,97.64
2022-10-02T04:23:35.812Z,97.73
2022-10-02T04:24:51.635Z,98.07
2022-10-02T04:26:14.573Z,97.73
2022-10-02T04:27:40.832Z,97.81
2022-10-02T04:28:50.033Z,97.64
2022-10-02T04:30:00.418Z,97.32
2022-10-02T04:31:09.447Z,97.47
2022-10-02T04:32:15.739Z,97.57
2022-10-02T04:33:20.758Z,97.08
2022-10-02T04:34:23.604Z,97.17
2022-10-02T04:35:43.717Z,97.02
2022-10-02T04:37:19.021Z,96.54
2022-10-02T04:38:56.846Z,96.27
2022-10-02T04:40:30.681Z,96.82
2022-10-02T04:42:02.460Z,96.04
2022-10-02T04:43:25.193Z,96.06
2022-10-02T04:44:42.696Z,95.49
2022-10-02T04:46:20.393Z,95.56
2022-10-02T04:47:49.257Z,95.09
2022-10-02T04:49:12.085Z,94.93
2022-10-02T04:50:33.423Z,95.00
2022-10-02T04:52:01.190Z,93.99
2022-10-02T04:53:40.245Z,94.12
2022-10-02T04:55:17.392Z,94.93
2022-10-02T04:56:50.008Z,94.18
2022-10-02T04:58:07.172Z,94.36
2022-10-02T04:59:39.930Z,94.55
2022-10-02T05:01:20.618Z,94.02
2022-10-02T05:02:44.754Z,93.50
2022-10-02T05:04:23.280Z,94.08
2022-10-02T05:05:35.560Z,94.05
2022-10-02T05:06:58.958Z,94.22
2022-10-02T05:08:49.757Z,94.13
2022-10-02T05:10:14.131Z,94.57
2022-10-02T05:11:54.079Z,95.02
2022-10-02T05:13:15.782Z,92.82
2022-10-02T05:14:59.215Z,93.02
2022-10-02T05:16:01.883Z,93.03
2022-10-02T05:17:30.269Z,93.55
2022-10-02T05:19:00.733Z,94.04
2022-10-02T05:20:28.019Z,94.03
2022-10-02T05:21:58.739Z,94.23
2022-10-02T05:23:11.357Z,94.13
2022-10-02T05:24:20.162Z,93.92
2022-10-02T05:25:56.120Z,94.06
2022-10-02T05:27:01.857Z,94.32
2022-10-02T05:28:38.554Z,93.74
2022-10-02T05:30:10.512Z,94.41
2022-10-02T05:31:48.413Z,94.29
2022-10-02T05:33:20.898Z,94.25
2022-10-02T05:34:42.325Z,94.62
2022-10-02T05:35:59.850Z,94.15
2022-10-02T05:37:10.286Z,93.99
2022-10-02T05:38:51.761Z,94.22
2022-10-02T05:40:13.222Z,94.02
2022-10-02T05:41:21.283Z,94.44
2022-10-02T05:42:39.026Z,94.58
2022-10-02T05:43:49.910Z,94.34
2022-10-02T05:45:03.084Z,94.11
2022-10-02T05:46:14.896Z,94.42
2022-10-02T05:47:30.664Z,94.17
2022-10-02T05:48:41.389Z,94.67
2022-10-02T05:49:58.834Z,94.63
2022-10-02T05:51:16.653Z,93.05
2022-10-02T05:52:28.627Z,92.15
2022-10-02T05:54:05.387Z,91.91
2022-10-02T05:55:22.358Z,92.05
2022-10-02T05:56:34.560Z,92.67
2022-10-02T05:57:44.145Z,92.70
2022-10-02T05:59:31.480Z,93.18
2022-10-02T06:00:36.940Z,92.61
2022-10-02T06:01:46.541Z,93.36
2022-10-02T06:03:31.472Z,92.07
2022-10-02T06:04:40.253Z,92.38
2022-10-02T06:05:55.512Z,92.78
2022-10-02T06:07:06.965Z,91.03
2022-10-02T06:08:15.605Z,91.40
2022-10-02T06:09:44.546Z,92.58
2022-10-02T06:10:52.421Z,92.53
2022-10-02T06:12:00.346Z,92.27
2022-10-02T06:13:13.831Z,91.96
2022-10-02T06:14:41.366Z,90.79
2022-10-02T06:15:52.265Z,90.30
2022-10-02T06:17:03.134Z,91.22
2022-10-02T06:18:10.966Z,91.50
2022-10-02T06:19:24.984Z,91.49
2022-10-02T06:20:42.985Z,90.53
2022-10-02T06:21:54.046Z,90.78
2022-10-02T06:23:07.124Z,91.17
2022-10-02T06:24:20.743Z,89.40
2022-10-02T06:25:37.240Z,89.19
2022-10-02T06:26:49.685Z,89.33
2022-10-02T06:27:52.493Z,89.06
2022-10-02T06:29:09.247Z,88.76
2022-10-02T06:30:17.364Z,88.26
2022-10-02T06:31:54.935Z,87.13
2022-10-02T06:33:18.960Z,87.27
2022-10-02T06:34:23.547Z,87.89
2022-10-02T06:35:52.526Z,86.95
2022-10-02T06:37:25.971Z,87.99
2022-10-02T06:39:01.001Z,87.85
2022-10-02T06:40:31.254Z,87.47
2022-10-02T06:42:01.496Z,86.60
2022-10-02T06:43:17.313Z,86.90
2022-10-02T06:44:42.591Z,86.37
2022-10-02T06:46:11.699Z,84.96
2022-10-02T06:47:36.191Z,85.51
2022-10-02T06:48:48.519Z,85.71
2022-10-02T06:50:16.613Z,83.61
2022-10-02T06:51:39.541Z,85.45
2022-10-02T06:53:13.000Z,84.52
2022-10-02T06:54:47.476Z,83.39
2022-10-02T06:56:03.073Z,84.13
2022-10-02T06:57:23.891Z,82.68
2022-10-02T06:58:30.413Z,81.58
2022-10-02T07:00:12.190Z,80.75
2022-10-02T07:01:39.990Z,78.87
2022-10-02T07:02:45.747Z,79.98
2022-10-02T07:04:15.231Z,79.57
2022-10-02T07:05:36.785Z,79.33
2022-10-02T07:06:48.761Z,78.14
2022-10-02T07:08:11.578Z,77.37
2022-10-02T07:09:53.291Z,77.17
2022-10-02T07:11:33.048Z,77.07
2022-10-02T07:13:05.359Z,78.42
2022-10-02T07:14:30.761Z,78.26
2022-10-02T07:15:42.499Z,77.92
2022-10-02T07:17:10.401Z,78.17
2022-10-02T07:18:15.767Z,77.33
2022-10-02T07:19:21.577Z,77.37
2022-10-02T07:20:45.720Z,75.66
2022-10-02T07:22:42.790Z,76.23
2022-10-02T07:24:02.583Z,76.56
2022-10-02T07:25:09.848Z,76.08
2022-10-02T07:26:32.471Z,75.16
2022-10-02T07:28:03.704Z,75.87
2022-10-02T07:29:08.426Z,76.32
2022-10-02T07:30:15.229Z,75.79
2022-10-02T07:31:33.518Z,75.12
2022-10-02T07:32:42.525Z,75.61
2022-10-02T07:33:58.375Z,75.28
2022-10-02T07:35:08.690Z,73.15
2022-10-02T07:36:46.129Z,71.77
2022-10-02T07:38:11.786Z,70.71
2022-10-02T07:39:21.434Z,71.94
2022-10-02T07:40:43.451Z,72.58
2022-10-02T07:42:14.283Z,72.10
2022-10-02T07:43:50.069Z,71.98
2022-10-02T07:45:00.100Z,72.34
2022-10-02T07:46:23.304Z,73.29
2022-10-02T07:47:50.782Z,71.89
2022-10-02T07:49:10.213Z,70.66
2022-10-02T07:50:30.024Z,69.58
2022-10-02T07:52:11.616Z,69.45
2022-10-02T07:53:25.060Z,67.69
2022-10-02T07:55:10.236Z,67.15
2022-10-02T07:56:20.313Z,66.66
2022-10-02T07:57:35.119Z,66.80
2022-10-02T07:58:51.137Z,66.51
2022-10-02T08:00:15.447Z,66.83
2022-10-02T08:01:26.175Z,66.86
2022-10-02T08:02:34.637Z,66.45
2022-10-02T08:03:49.855Z,64.90
2022-10-02T08:04:59.767Z,65.99
2022-10-02T08:06:04.189Z,65.27
2022-10-02T08:07:07.467Z,65.70
2022-10-02T08:08:22.570Z,65.19
2022-10-02T08:09:36.725Z,65.32
2022-10-02T08:10:44.933Z,66.23
2022-10-02T08:11:52.962Z,65.27
2022-10-02T08:13:03.501Z,65.29
2022-10-02T08:14:18.591Z,63.87
2022-10-02T08:15:23.675Z,63.10
2022-10-02T08:16:33.946Z,63.01
2022-10-02T08:17:44.035Z,63.77
2022-10-02T08:18:56.090Z,63.57
2022-10-02T08:20:15.903Z,62.76
2022-10-02T08:21:24.617Z,63.75
2022-10-02T08:22:36.583Z,63.88
2022-10-02T08:24:04.697Z,65.39
2022-10-02T08:25:18.688Z,65.79
2022-10-02T08:26:46.831Z,64.89
2022-10-02T08:28:12.355Z,65.14
2022-10-02T08:29:26.888Z,66.09
2022-10-02T08:30:29.708Z,65.38
2022-10-02T08:31:33.475Z,63.25
2022-10-02T08:32:37.515Z,65.29
2022-10-02T08:33:40.754Z,63.41
2022-10-02T08:34:44.375Z,63.95
2022-10-02T08:36:13.415Z,62.93
2022-10-02T08:37:43.637Z,62.28
2022-10-02T08:39:02.075Z,62.00
2022-10-02T08:40:33.478Z,60.98
2022-10-02T08:42:08.309Z,61.15
2022-10-02T08:43:48.378Z,61.29
2022-10-02T08:45:37.227Z,61.47
2022-10-02T08:47:10.691Z,62.35
2022-10-02T08:48:16.744Z,62.51
2022-10-02T08:49:47.151Z,63.08
2022-10-02T08:50:59.488Z,63.65
2022-10-02T08:52:39.518Z,62.96
2022-10-02T08:54:12.963Z,61.30
2022-10-02T08:55:25.798Z,61.45
2022-10-02T08:56:49.921Z,61.83
2022-10-02T08:58:44.353Z,62.33
2022-10-02T09:00:15.104Z,60.87
2022-10-02T09:01:40.554Z,60.99
2022-10-02T09:03:20.899Z,60.31
2022-10-02T09:04:32.750Z,59.01
2022-10-02T09:05:41.502Z,56.23
2022-10-02T09:07:24.842Z,56.39
2022-10-02T09:08:46.230Z,55.36
2022-10-02T09:10:17.302Z,55.89
2022-10-02T09:11:52.181Z,53.19
2022-10-02T09:13:40.705Z,53.97
2022-10-02T09:14:49.609Z,53.04
2022-10-02T09:16:19.594Z,52.79
2022-10-02T09:17:41.226Z,52.82
2022-10-02T09:19:09.057Z,51.31
2022-10-02T09:20:36.593Z,51.95
2022-10-02T09:22:03.796Z,53.81
2022-10-02T09:23:43.838Z,54.57
2022-10-02T09:25:05.560Z,54.32
2022-10-02T09:26:25.924Z,52.71
2022-10-02T09:28:00.949Z,50.87
2022-10-02T09:29:38.132Z,52.30
2022-10-02T09:31:04.021Z,51.02
2022-10-02T09:32:43.611Z,50.00
2022-10-02T09:34:13.459Z,50.88
2022-10-02T09:35:19.252Z,49.30
2022-10-02T09:36:39.354Z,50.97
2022-10-02T09:37:59.710Z,51.27
2022-10-02T09:39:25.436Z,51.79
2022-10-02T09:40:47.019Z,49.94
2022-10-02T09:41:50.517Z,48.23
2022-10-02T09:43:08.682Z,48.56
2022-10-02T09:44:24.085Z,49.77
2022-10-02T09:45:36.659Z,49.73
2022-10-02T09:47:01.235Z,50.02
2022-10-02T09:48:17.930Z,49.75
2022-10-02T09:49:55.099Z,49.67
2022-10-02T09:51:31.971Z,50.99
2022-10-02T09:53:08.767Z,52.39
2022-10-02T09:54:42.478Z,53.38
2022-10-02T09:56:03.405Z,51.78
2022-10-02T09:57:36.357Z,54.09
2022-10-02T09:59:04.187Z,55.91
2022-10-02T10:00:25.567Z,56.43
2022-10-02T10:01:28.496Z,55.90
2022-10-02T10:02:54.464Z,56.95
2022-10-02T10:04:16.074Z,56.79
2022-10-02T10:05:57.815Z,56.68
2022-10-02T10:07:31.504Z,56.94
2022-10-02T10:08:53.214Z,55.28
2022-10-02T10:10:30.055Z,54.98
2022-10-02T10:11:43.737Z,56.02
2022-10-02T10:13:08.232Z,55.48
2022-10-02T10:14:54.138Z,55.64
2022-10-02T10:16:34.092Z,54.94
2022-10-02T10:17:54.063Z,52.77
2022-10-02T10:19:20.209Z,52.37
2022-10-02T10:20:36.999Z,51.18
2022-10-02T10:21:59.603Z,50.80
2022-10-02T10:23:49.987Z,49.82
2022-10-02T10:25:21.201Z,50.70
2022-10-02T10:26:44.554Z,48.97
2022-10-02T10:28:06.248Z,48.63
2022-10-02T10:29:14.899Z,49.10
2022-10-02T10:30:39.090Z,50.96
2022-10-02T10:32:28.015Z,50.88
2022-10-02T10:33:48.963Z,51.85
2022-10-02T10:35:01.257Z,52.42
2022-10-02T10:36:36.179Z,54.55
2022-10-02T10:38:17.019Z,51.82
2022-10-02T10:39:43.055Z,53.11
2022-10-02T10:41:11.331Z,54.57
2022-10-02T10:42:24.614Z,54.78
2022-10-02T10:43:48.151Z,54.12
2022-10-02T10:45:28.095Z,54.43
2022-10-02T10:46:53.889Z,52.76
2022-10-02T10:48:38.281Z,55.24
2022-10-02T10:50:05.680Z,52.44
2022-10-02T10:51:17.130Z,52.98
2022-10-02T10:52:22.957Z,53.40
2022-10-02T10:54:01.704Z,53.71
2022-10-02T10:55:19.661Z,54.37
2022-10-02T10:56:37.358Z,55.51
2022-10-02T10:58:05.338Z,54.30
2022-10-02T10:59:27.448Z,54.84
2022-10-02T11:00:53.193Z,55.02
2022-10-02T11:01:56.129Z,54.50
2022-10-02T11:03:33.203Z,56.18
2022-10-02T11:04:59.178Z,55.72
2022-10-02T11:06:35.221Z,56.44
2022-10-02T11:08:03.849Z,56.57
2022-10-02T11:09:45.365Z,55.33
2022-10-02T11:11:17.707Z,56.08
2022-10-02T11:12:33.960Z,53.85
2022-10-02T11:14:07.569Z,54.48
2022-10-02T11:15:32.084Z,55.53
2022-10-02T11:17:03.521Z,55.78
2022-10-02T11:18:15.601Z,56.76
2022-10-02T11:19:36.146Z,57.14
2022-10-02T11:21:03.412Z,56.86
2022-10-02T11:22:27.680Z,55.37
2022-10-02T11:23:45.157Z,51.51
2022-10-02T11:25:17.621Z,50.95
2022-10-02T11:26:46.932Z,51.84
2022-10-02T11:28:15.003Z,49.93
2022-10-02T11:29:36.114Z,49.16
2022-10-02T11:31:08.422Z,49.37
2022-10-02T11:32:17.954Z,47.00
2022-10-02T11:33:58.354Z,44.24
2022-10-02T11:35:21.257Z,48.19
2022-10-02T11:36:47.223Z,47.34
2022-10-02T11:38:24.141Z,46.42
2022-10-02T11:39:56.040Z,45.58
2022-10-02T11:41:28.970Z,47.95
2022-10-02T11:42:49.970Z,49.26
2022-10-02T11:43:59.983Z,49.25
2022-10-02T11:45:15.008Z,50.98
2022-10-02T11:46:54.821Z,51.74
2022-10-02T11:48:33.431Z,52.55
2022-10-02T11:50:03.294Z,53.45
2022-10-02T11:51:24.527Z,51.26
2022-10-02T11:52:54.792Z,52.00
2022-10-02T11:54:10.244Z,51.25
2022-10-02T11:55:46.392Z,48.28
2022-10-02T11:56:57.731Z,46.55
2022-10-02T11:58:45.473Z,49.20
2022-10-02T12:00:17.828Z,49.75
2022-10-02T12:01:32.559Z,47.82
2022-10-02T12:02:43.888Z,48.18
2022-10-02T12:04:04.405Z,48.40
2022-10-02T12:05:45.652Z,48.38
2022-10-02T12:07:29.602Z,49.26
2022-10-02T12:09:00.461Z,49.74
2022-10-02T12:10:57.242Z,48.86
2022-10-02T12:12:35.705Z,51.39
2022-10-02T12:14:01.407Z,52.55
2022-10-02T12:15:17.841Z,52.24
2022-10-02T12:16:41.068Z,51.10
2022-10-02T12:17:55.585Z,52.63
2022-10-02T12:19:19.497Z,54.26
2022-10-02T12:21:05.424Z,54.99
2022-10-02T12:22:55.316Z,54.18
2022-10-02T12:24:19.639Z,54.20
2022-10-02T12:26:20.326Z,54.73
2022-10-02T12:27:43.108Z,55.45
2022-10-02T12:29:06.970Z,57.42
2022-10-02T12:30:21.086Z,58.71
2022-10-02T12:31:37.263Z,58.62
2022-10-02T12:33:07.821Z,58.50
2022-10-02T12:34:25.791Z,58.55
2022-10-02T12:35:56.191Z,59.00
2022-10-02T12:37:16.101Z,59.90
2022-10-02T12:38:33.903Z,59.63
2022-10-02T12:39:57.299Z,59.99
2022-10-02T12:41:08.916Z,61.09
2022-10-02T12:42:21.647Z,61.68
2022-10-02T12:43:55.553Z,60.84
2022-10-02T12:45:11.553Z,61.50
2022-10-02T12:46:37.168Z,62.75
2022-10-02T12:48:19.327Z,62.66
2022-10-02T12:49:41.532Z,63.41
2022-10-02T12:51:05.398Z,64.34
2022-10-02T12:52:14.154Z,65.15
2022-10-02T12:53:25.708Z,65.26
2022-10-02T12:55:05.878Z,64.75
2022-10-02T12:56:28.625Z,63.32
2022-10-02T12:57:52.903Z,64.44
2022-10-02T12:59:12.018Z,65.65
2022-10-02T13:00:18.955Z,65.19
2022-10-02T13:01:59.024Z,65.08
2022-10-02T13:03:07.676Z,65.09
2022-10-02T13:04:17.322Z,64.60
2022-10-02T13:06:02.057Z,64.14
2022-10-02T13:07:42.914Z,62.90
2022-10-02T13:09:08.702Z,63.96
2022-10-02T13:10:23.544Z,63.31
2022-10-02T13:11:56.781Z,63.14
2022-10-02T13:13:53.638Z,62.80
2022-10-02T13:15:23.476Z,63.81
2022-10-02T13:16:48.985Z,63.26
2022-10-02T13:18:05.240Z,63.10
2022-10-02T13:19:20.359Z,64.08
2022-10-02T13:20:39.135Z,64.45
2022-10-02T13:22:02.590Z,65.93
2022-10-02T13:23:23.793Z,65.28
2022-10-02T13:24:56.701Z,65.92
2022-10-02T13:26:06.942Z,66.12
2022-10-02T13:27:32.686Z,65.37
2022-10-02T13:29:14.219Z,64.30
2022-10-02T13:30:24.262Z,65.79
2022-10-02T13:31:52.447Z,65.52
2022-10-02T13:33:13.661Z,66.35
2022-10-02T13:34:38.381Z,66.72
2022-10-02T13:36:02.475Z,67.30
2022-10-02T13:37:34.883Z,68.82
2022-10-02T13:38:40.087Z,67.02
2022-10-02T13:40:05.347Z,67.40
2022-10-02T13:41:32.229Z,66.98
2022-10-02T13:42:41.287Z,67.71
2022-10-02T13:44:20.352Z,69.32
2022-10-02T13:45:45.862Z,69.54
2022-10-02T13:47:05.592Z,69.40
2022-10-02T13:48:46.062Z,71.46
2022-10-02T13:50:27.336Z,69.88
2022-10-02T13:51:49.341Z,68.51
2022-10-02T13:53:02.931Z,68.84
2022-10-02T13:54:20.419Z,69.10
2022-10-02T13:55:28.878Z,68.99
2022-10-02T13:56:34.583Z,69.54
2022-10-02T13:58:00.586Z,68.68
2022-10-02T13:59:55.959Z,70.45
2022-10-02T14:01:13.742Z,71.14
2022-10-02T14:02:39.882Z,70.45
2022-10-02T14:03:50.177Z,69.90
2022-10-02T14:04:55.649Z,70.33
2022-10-02T14:06:14.928Z,69.70
2022-10-02T14:07:39.315Z,68.29
2022-10-02T14:08:50.624Z,68.84
2022-10-02T14:10:19.406Z,69.34
2022-10-02T14:11:43.769Z,69.39
2022-10-02T14:13:02.561Z,69.96
2022-10-02T14:14:36.791Z,69.80
2022-10-02T14:16:08.521Z,70.04
2022-10-02T14:17:26.262Z,70.60
2022-10-02T14:18:45.030Z,69.69
2022-10-02T14:20:15.142Z,68.94
2022-10-02T14:21:31.228Z,69.76
2022-10-02T14:22:36.346Z,70.53
2022-10-02T14:24:13.076Z,71.63
2022-10-02T14:25:49.236Z,71.40
2022-10-02T14:27:39.877Z,71.25
2022-10-02T14:29:06.228Z,72.16
2022-10-02T14:30:18.992Z,71.87
2022-10-02T14:31:43.168Z,71.94
2022-10-02T14:33:19.096Z,71.53
2022-10-02T14:34:27.843Z,70.97
2022-10-02T14:35:45.527Z,69.30
2022-10-02T14:37:19.936Z,69.84
2022-10-02T14:38:29.705Z,69.99
2022-10-02T14:39:35.935Z,69.68
2022-10-02T14:41:00.294Z,71.32
2022-10-02T14:42:02.828Z,70.77
2022-10-02T14:43:11.303Z,70.84
2022-10-02T14:44:35.517Z,70.71
2022-10-02T14:45:56.166Z,70.47
2022-10-02T14:47:15.313Z,71.05
2022-10-02T14:48:49.319Z,71.81
2022-10-02T14:50:13.818Z,72.00
2022-10-02T14:51:38.604Z,72.17
2022-10-02T14:53:12.314Z,72.23
2022-10-02T14:54:32.053Z,71.82
2022-10-02T14:55:49.711Z,72.83
2022-10-02T14:57:41.764Z,71.74
2022-10-02T14:59:05.802Z,72.72
2022-10-02T15:00:19.148Z,73.15
2022-10-02T15:01:23.668Z,74.17
2022-10-02T15:02:46.774Z,73.54
2022-10-02T15:04:28.103Z,73.15
2022-10-02T15:05:59.352Z,74.12
2022-10-02T15:07:07.623Z,73.82
2022-10-02T15:08:23.443Z,74.67
2022-10-02T15:09:35.967Z,72.93
2022-10-02T15:10:41.196Z,73.30
2022-10-02T15:11:44.733Z,74.48
2022-10-02T15:13:02.890Z,75.11
2022-10-02T15:14:36.988Z,74.30
2022-10-02T15:16:16.635Z,74.42
2022-10-02T15:17:56.362Z,74.77
2022-10-02T15:19:11.639Z,74.20
2022-10-02T15:20:40.749Z,74.79
2022-10-02T15:22:02.201Z,75.83
2022-10-02T15:23:11.135Z,75.88
2022-10-02T15:24:40.995Z,75.43
2022-10-02T15:26:22.195Z,75.82
2022-10-02T15:27:37.414Z,75.86
2022-10-02T15:29:06.297Z,77.72
2022-10-02T15:30:21.762Z,78.08
2022-10-02T15:31:33.414Z,78.11
2022-10-02T15:32:44.876Z,78.48
2022-10-02T15:33:59.307Z,78.89
2022-10-02T15:35:21.461Z,79.87
2022-10-02T15:36:45.591Z,79.47
2022-10-02T15:37:50.743Z,79.27
2022-10-02T15:39:26.658Z,80.18
2022-10-02T15:40:31.360Z,80.00
2022-10-02T15:41:42.921Z,80.12
2022-10-02T15:42:58.528Z,80.01
2022-10-02T15:44:16.991Z,80.04
2022-10-02T15:45:34.392Z,78.67
2022-10-02T15:46:58.603Z,78.96
2022-10-02T15:48:10.283Z,80.01
2022-10-02T15:49:15.298Z,80.11
2022-10-02T15:50:17.819Z,80.38
2022-10-02T15:51:59.643Z,80.67
2022-10-02T15:53:22.677Z,80.33
2022-10-02T15:54:47.838Z,80.72
2022-10-02T15:55:59.978Z,80.81
2022-10-02T15:57:21.849Z,81.87
2022-10-02T15:58:56.987Z,82.14
2022-10-02T16:00:19.673Z,82.18
2022-10-02T16:01:48.984Z,82.75
2022-10-02T16:03:03.037Z,82.35
2022-10-02T16:04:17.779Z,82.33
2022-10-02T16:05:48.277Z,81.63
2022-10-02T16:07:25.162Z,83.17
2022-10-02T16:08:51.821Z,82.91
2022-10-02T16:10:16.243Z,82.70
2022-10-02T16:11:45.844Z,83.25
2022-10-02T16:13:03.716Z,83.54
2022-10-02T16:14:30.541Z,83.67
2022-10-02T16:15:54.668Z,84.52
2022-10-02T16:17:00.314Z,84.47
2022-10-02T16:18:28.732Z,85.56
2022-10-02T16:20:02.706Z,84.23
2022-10-02T16:21:28.400Z,84.40
2022-10-02T16:23:14.100Z,84.99
2022-10-02T16:24:23.717Z,85.24
2022-10-02T16:25:58.583Z,84.91
2022-10-02T16:27:12.940Z,86.21
2022-10-02T16:28:38.779Z,85.73
2022-10-02T16:30:13.640Z,86.20
2022-10-02T16:31:19.062Z,85.05
2022-10-02T16:32:45.946Z,84.92
2022-10-02T16:34:03.580Z,85.54
2022-10-02T16:35:24.630Z,86.77
2022-10-02T16:36:38.200Z,86.67
2022-10-02T16:37:46.785Z,87.01
2022-10-02T16:39:14.412Z,87.02
2022-10-02T16:40:42.603Z,86.65
2022-10-02T16:41:58.851Z,85.68
2022-10-02T16:43:32.556Z,86.36
2022-10-02T16:44:50.588Z,87.42
2022-10-02T16:46:21.323Z,87.46
2022-10-02T16:47:43.095Z,86.67
2022-10-02T16:48:48.798Z,87.08
2022-10-02T16:50:15.827Z,86.72
2022-10-02T16:51:54.284Z,85.77
2022-10-02T16:53:04.452Z,85.67
2022-10-02T16:54:09.629Z,86.33
2022-10-02T16:55:38.002Z,86.85
2022-10-02T16:56:59.516Z,87.58
2022-10-02T16:58:27.431Z,87.84
2022-10-02T16:59:49.426Z,86.29
2022-10-02T17:00:52.070Z,86.67
2022-10-02T17:02:43.642Z,86.93
2022-10-02T17:04:06.154Z,86.82
2022-10-02T17:05:14.944Z,86.62
2022-10-02T17:06:24.986Z,87.62
2022-10-02T17:07:42.250Z,86.78
2022-10-02T17:09:02.823Z,87.11
2022-10-02T17:10:19.354Z,89.06
2022-10-02T17:11:39.994Z,89.25
2022-10-02T17:13:22.141Z,88.91
2022-10-02T17:14:46.741Z,88.62
2022-10-02T17:15:55.161Z,88.53
2022-10-02T17:17:05.946Z,87.87
2022-10-02T17:18:18.090Z,87.51